Accueil
METAR-TAF:

METAR-TAF

Aéroports :

Aéroport international Mehrabad

Téhéran, Iran

latitude: 35-41N, longitude: 051-21E, altitude: 1204 m

Observation

Le bulletin a été fait il y a 25 minutes, à 04:00 UTC
Vent 4 kt de ouest/nord-ouest
Température 30°C
Humidité 24%
Pression 1011 hPa
Visibilité 10 km ou plus
pas de nuages en-dessous de 1500 mètres et pas de cumulonimbus.

METAR: OIII 110400Z 30004KT CAVOK 30/07 Q1010 A2985 NOSIG

Heure: 08:55 (04:25 UTC)

Prévision

Le bulletin a été fait il y a 5 heures et 25 minutes, à 23:00 UTC
Prévision valable du 11 à 00 UTC au 12 à 06 UTC
Vent 8 kt de ouest
Visibilité: 8000 m
Quelques nuages à une hauteur de 4000 ft
Temporairement
du 11 à 08 UTC au 11 à 16 UTC
Vent 18 kt de est/sud-est

TAF: OIII 102300Z 1100/1206 28008KT 8000 FEW040 TEMPO 1108/1116 12018KT

Observations et prévisions météorologiques de plus de 4000 aéroports (messages METAR et TAF).

Les stations disponibles sont représentées par des disques jaunes et rouges sur la carte.

Passer la souris dessus pour voir le nom de la station.

Cliquer dessus pour voir les observations et prévisions météorologiques.

Pour changer de carte: cliquez sur les boutons verts avec une croix noire pour zoomer, sur le bouton vert avec un tiret pour effectuer un zoom arrière, ou sur les flèches vertes pour les cartes adjacentes.


METAR-TAF: